Aérodrome :
LOGIN :

S'inscrire | Disclaimer

   EN    FR    IT 

 










Légende :    VFR   VFR Marginal   IFR   IFR Intensif   IFR Très Intensif
Visi : 
Plafond : 
>= 8 km
>= 3000ft
5 à 8 km
1000 à 3000 ft
1500m à 5 km
500 à 1000 ft
800 à 1500m
200 à 500 ft
< 800m
< 200 ft
Symboles :   Orages  Brouillard  Fortes neiges  Fortes précipitations  Vent > 20 kt
SIGMETs :   Divers  Orages  Givrage  Turbulence  Onde Orograph.  Cendres Volcan.






- Altitude de l'aérodrome : 3368 ft


LSGC - Les Eplatures

DERNIER METAR :
  • 212050Z AUTO VRB01KT CAVOK 02/00 Q1017

METARs EXPIRÉS :
  • 212020Z AUTO 00000KT CAVOK 03/00 Q1017
  • 211950Z AUTO VRB01KT CAVOK 03/01 Q1017
  • 211920Z AUTO VRB01KT CAVOK 04/01 Q1017
  • 211850Z AUTO VRB01KT 9999 NCD 04/02 Q1016
  • 211820Z AUTO VRB01KT 9999 NSC 05/02 Q1016

TAF TAF LSGC
Valide du 21 à 15h jusqu'au 22 à 00h UTC


211425Z 2115/2124 VRB02KT 9999 FEW025 SCT035
PROB40
TEMPO 2115/2118 SHRA FEW030TCU BKN045



MET'MAP, la Météo Aéronautique d'un coup d'oeil ! - Copyright ORBIFLY Décembre 2007 - Disclaimer

ORBIFLY MET'MAP TEAM :

Programmation & Développement : Alexandra Zaïnal
Sur une idée originale de : Baudouin d'Aumeries
Assistance à la programmation : Marc-Olivier Méhu
Soutien technique & logistique : Manuel Goepfert

Contact : metmap@orbifly.com




SOURCES & CREDITS :

   NOAA